createdAt,value
2019-05-15T00:00:02.639Z,98729.57
2019-05-15T00:01:04.749Z,98731.71
2019-05-15T00:02:10.810Z,98737.20
2019-05-15T00:03:14.280Z,98735.55
2019-05-15T00:04:18.548Z,98735.67
2019-05-15T00:05:20.750Z,98733.56
2019-05-15T00:06:23.215Z,98736.86
2019-05-15T00:07:25.571Z,98731.89
2019-05-15T00:08:28.894Z,98733.54
2019-05-15T00:09:30.834Z,98727.39
2019-05-15T00:10:33.302Z,98723.25
2019-05-15T00:11:38.767Z,98730.69
2019-05-15T00:12:40.595Z,98725.58
2019-05-15T00:13:42.834Z,98718.09
2019-05-15T00:14:45.026Z,98713.92
2019-05-15T00:15:48.111Z,98728.03
2019-05-15T00:16:50.706Z,98720.88
2019-05-15T00:17:54.623Z,98722.86
2019-05-15T00:18:59.105Z,98724.58
2019-05-15T00:20:02.761Z,98722.20
2019-05-15T00:21:05.319Z,98725.03
2019-05-15T00:22:08.606Z,98719.39
2019-05-15T00:23:11.134Z,98723.41
2019-05-15T00:24:13.762Z,98717.61
2019-05-15T00:25:18.684Z,98717.93
2019-05-15T00:26:20.606Z,98712.63
2019-05-15T00:27:22.890Z,98708.64
2019-05-15T00:28:25.260Z,98710.30
2019-05-15T00:29:28.887Z,98709.45
2019-05-15T00:30:31.796Z,98703.82
2019-05-15T00:31:33.853Z,98706.64
2019-05-15T00:32:38.991Z,98706.60
2019-05-15T00:33:41.137Z,98703.98
2019-05-15T00:34:43.385Z,98709.62
2019-05-15T00:35:48.427Z,98696.70
2019-05-15T00:36:50.473Z,98704.30
2019-05-15T00:37:53.181Z,98703.27
2019-05-15T00:38:55.702Z,98707.13
2019-05-15T00:39:59.237Z,98708.94
2019-05-15T00:41:01.860Z,98706.64
2019-05-15T00:42:08.149Z,98708.61
2019-05-15T00:43:10.684Z,98697.63
2019-05-15T00:44:13.049Z,98707.44
2019-05-15T00:45:18.538Z,98703.27
2019-05-15T00:46:21.156Z,98704.27
2019-05-15T00:47:23.354Z,98697.98
2019-05-15T00:48:25.298Z,98697.97
2019-05-15T00:49:28.871Z,98702.12
2019-05-15T00:50:31.410Z,98706.75
2019-05-15T00:51:34.303Z,98700.42
2019-05-15T00:52:39.032Z,98700.54
2019-05-15T00:53:42.024Z,98699.27
2019-05-15T00:54:44.276Z,98701.91
2019-05-15T00:55:48.539Z,98699.30
2019-05-15T00:56:50.854Z,98704.63
2019-05-15T00:57:52.558Z,98697.46
2019-05-15T00:58:55.213Z,98700.45
2019-05-15T00:59:58.990Z,98693.97
2019-05-15T01:01:01.455Z,98695.80
2019-05-15T01:02:04.406Z,98694.29
2019-05-15T01:03:08.703Z,98693.00
2019-05-15T01:04:11.410Z,98699.28
2019-05-15T01:05:14.045Z,98700.65
2019-05-15T01:06:16.233Z,98700.28
2019-05-15T01:07:18.899Z,98700.31
2019-05-15T01:08:21.218Z,98697.81
2019-05-15T01:09:22.945Z,98690.51
2019-05-15T01:10:28.701Z,98697.99
2019-05-15T01:11:31.401Z,98691.03
2019-05-15T01:12:34.119Z,98690.39
2019-05-15T01:13:35.792Z,98687.41
2019-05-15T01:14:38.566Z,98684.23
2019-05-15T01:15:42.691Z,98679.41
2019-05-15T01:16:44.865Z,98681.70
2019-05-15T01:17:49.044Z,98678.41
2019-05-15T01:18:50.914Z,98674.41
2019-05-15T01:19:53.213Z,98675.05
2019-05-15T01:20:55.518Z,98676.23
2019-05-15T01:21:58.661Z,98678.77
2019-05-15T01:23:01.622Z,98677.80
2019-05-15T01:24:05.259Z,98674.78
2019-05-15T01:25:08.669Z,98676.80
2019-05-15T01:26:11.113Z,98677.80
2019-05-15T01:27:13.690Z,98676.43
2019-05-15T01:28:15.560Z,98675.63
2019-05-15T01:29:19.032Z,98674.14
2019-05-15T01:30:22.823Z,98674.66
2019-05-15T01:31:24.514Z,98675.95
2019-05-15T01:32:28.384Z,98677.80
2019-05-15T01:33:30.777Z,98678.28
2019-05-15T01:34:33.145Z,98675.91
2019-05-15T01:35:35.481Z,98676.38
2019-05-15T01:36:38.238Z,98679.25
2019-05-15T01:37:40.820Z,98668.79
2019-05-15T01:38:43.438Z,98671.77
2019-05-15T01:39:45.236Z,98669.26
2019-05-15T01:40:48.502Z,98659.33
2019-05-15T01:41:51.096Z,98663.94
2019-05-15T01:42:52.754Z,98663.75
2019-05-15T01:43:55.085Z,98655.98
2019-05-15T01:44:58.941Z,98656.81
2019-05-15T01:46:01.381Z,98653.33
2019-05-15T01:47:03.678Z,98653.46
2019-05-15T01:48:08.176Z,98655.82
2019-05-15T01:49:11.674Z,98654.98
2019-05-15T01:50:14.606Z,98652.32
2019-05-15T01:51:18.484Z,98653.31
2019-05-15T01:52:20.307Z,98652.78
2019-05-15T01:53:23.163Z,98654.16
2019-05-15T01:54:25.424Z,98654.32
2019-05-15T01:55:28.396Z,98649.81
2019-05-15T01:56:30.978Z,98646.82
2019-05-15T01:57:32.717Z,98651.45
2019-05-15T01:58:37.998Z,98650.80
2019-05-15T01:59:52.789Z,98643.64
2019-05-15T02:00:43.856Z,98645.67
2019-05-15T02:01:48.504Z,98645.48
2019-05-15T02:02:50.794Z,98635.56
2019-05-15T02:03:52.621Z,98643.53
2019-05-15T02:04:55.065Z,98638.38
2019-05-15T02:05:58.622Z,98633.54
2019-05-15T02:07:01.462Z,98633.85
2019-05-15T02:08:04.018Z,98634.02
2019-05-15T02:09:08.352Z,98638.24
2019-05-15T02:10:10.872Z,98633.78
2019-05-15T02:11:13.760Z,98635.44
2019-05-15T02:12:16.021Z,98633.39
2019-05-15T02:13:18.673Z,98630.81
2019-05-15T02:14:20.999Z,98627.15
2019-05-15T02:15:24.397Z,98624.89
2019-05-15T02:16:28.628Z,98625.73
2019-05-15T02:17:30.768Z,98618.25
2019-05-15T02:18:34.418Z,98624.49
2019-05-15T02:19:39.017Z,98621.39
2019-05-15T02:20:41.268Z,98612.77
2019-05-15T02:21:43.645Z,98618.08
2019-05-15T02:22:48.385Z,98611.75
2019-05-15T02:23:50.400Z,98611.83
2019-05-15T02:24:54.819Z,98617.14
2019-05-15T02:25:58.846Z,98612.75
2019-05-15T02:27:02.204Z,98616.38
2019-05-15T02:28:03.912Z,98611.50
2019-05-15T02:29:07.761Z,98608.89
2019-05-15T02:30:22.670Z,98604.51
2019-05-15T02:31:14.598Z,98597.93
2019-05-15T02:32:19.270Z,98597.69
2019-05-15T02:33:21.129Z,98595.66
2019-05-15T02:34:23.404Z,98594.72
2019-05-15T02:35:25.769Z,98593.31
2019-05-15T02:36:29.394Z,98592.05
2019-05-15T02:37:32.895Z,98600.98
2019-05-15T02:38:35.560Z,98604.13
2019-05-15T02:39:38.834Z,98604.13
2019-05-15T02:40:41.745Z,98609.88
2019-05-15T02:41:44.416Z,98605.03
2019-05-15T02:42:49.303Z,98593.41
2019-05-15T02:43:51.024Z,98596.42
2019-05-15T02:44:53.301Z,98597.31
2019-05-15T02:45:55.810Z,98597.80
2019-05-15T02:46:58.831Z,98594.72
2019-05-15T02:48:01.638Z,98592.70
2019-05-15T02:49:03.912Z,98593.26
2019-05-15T02:50:10.717Z,98597.22
2019-05-15T02:51:11.260Z,98593.71
2019-05-15T02:52:13.052Z,98591.21
2019-05-15T02:53:18.986Z,98598.86
2019-05-15T02:54:21.521Z,98590.72
2019-05-15T02:55:23.819Z,98589.50
2019-05-15T02:56:29.091Z,98592.30
2019-05-15T02:57:30.293Z,98591.91
2019-05-15T02:58:33.017Z,98595.04
2019-05-15T02:59:35.314Z,98600.66
2019-05-15T03:00:47.001Z,98594.44
2019-05-15T03:01:42.618Z,98595.82
2019-05-15T03:02:44.780Z,98591.23
2019-05-15T03:03:49.437Z,98594.66
2019-05-15T03:04:52.717Z,98603.10
2019-05-15T03:05:55.519Z,98599.34
2019-05-15T03:07:00.353Z,98595.97
2019-05-15T03:08:01.970Z,98594.97
2019-05-15T03:09:04.873Z,98591.74
2019-05-15T03:10:09.395Z,98597.20
2019-05-15T03:11:12.224Z,98591.37
2019-05-15T03:12:14.199Z,98588.70
2019-05-15T03:13:18.895Z,98590.97
2019-05-15T03:14:21.593Z,98581.69
2019-05-15T03:15:24.694Z,98579.95
2019-05-15T03:16:30.456Z,98576.19
2019-05-15T03:17:31.557Z,98580.58
2019-05-15T03:18:34.180Z,98575.42
2019-05-15T03:19:39.355Z,98573.03
2019-05-15T03:20:41.322Z,98578.56
2019-05-15T03:21:43.305Z,98577.70
2019-05-15T03:22:45.528Z,98576.61
2019-05-15T03:23:50.715Z,98572.45
2019-05-15T03:24:51.526Z,98575.75
2019-05-15T03:25:53.935Z,98578.55
2019-05-15T03:26:59.051Z,98578.72
2019-05-15T03:28:00.184Z,98583.30
2019-05-15T03:29:02.606Z,98574.66
2019-05-15T03:30:05.801Z,98575.84
2019-05-15T03:31:25.845Z,98572.05
2019-05-15T03:32:25.512Z,98582.31
2019-05-15T03:33:25.699Z,98574.57
2019-05-15T03:34:28.405Z,98575.42
2019-05-15T03:35:25.133Z,98578.63
2019-05-15T03:36:31.528Z,98576.77
2019-05-15T03:37:34.690Z,98575.37
2019-05-15T03:38:39.390Z,98576.94
2019-05-15T03:39:41.532Z,98581.91
2019-05-15T03:40:43.972Z,98574.80
2019-05-15T03:41:49.688Z,98568.42
2019-05-15T03:42:52.016Z,98568.02
2019-05-15T03:43:54.273Z,98570.10
2019-05-15T03:44:59.697Z,98565.66
2019-05-15T03:46:01.748Z,98566.91
2019-05-15T03:47:04.530Z,98568.77
2019-05-15T03:48:09.255Z,98562.92
2019-05-15T03:49:11.903Z,98568.09
2019-05-15T03:50:14.441Z,98570.14
2019-05-15T03:51:19.859Z,98567.86
2019-05-15T03:52:21.830Z,98567.80
2019-05-15T03:53:25.013Z,98570.14
2019-05-15T03:54:29.381Z,98564.48
2019-05-15T03:55:31.545Z,98568.41
2019-05-15T03:56:39.023Z,98565.72
2019-05-15T03:57:40.531Z,98569.41
2019-05-15T03:58:44.154Z,98563.95
2019-05-15T03:59:48.957Z,98567.77
2019-05-15T04:00:50.180Z,98566.94
2019-05-15T04:01:52.594Z,98570.10
2019-05-15T04:02:55.160Z,98562.41
2019-05-15T04:03:59.877Z,98559.09
2019-05-15T04:05:02.363Z,98561.77
2019-05-15T04:06:05.213Z,98565.06
2019-05-15T04:07:09.232Z,98571.28
2019-05-15T04:08:11.902Z,98575.48
2019-05-15T04:09:14.444Z,98573.95
2019-05-15T04:10:19.769Z,98567.66
2019-05-15T04:11:20.930Z,98572.06
2019-05-15T04:12:23.477Z,98564.73
2019-05-15T04:13:25.936Z,98569.09
2019-05-15T04:14:29.624Z,98570.17
2019-05-15T04:15:32.102Z,98566.39
2019-05-15T04:16:34.849Z,98566.36
2019-05-15T04:17:40.099Z,98569.73
2019-05-15T04:18:42.185Z,98565.88
2019-05-15T04:19:44.552Z,98565.31
2019-05-15T04:20:49.299Z,98558.06
2019-05-15T04:21:50.711Z,98557.51
2019-05-15T04:22:53.247Z,98558.30
2019-05-15T04:23:58.785Z,98560.03
2019-05-15T04:25:03.049Z,98558.16
2019-05-15T04:26:09.346Z,98562.69
2019-05-15T04:27:12.030Z,98556.11
2019-05-15T04:28:19.300Z,98562.67
2019-05-15T04:29:21.900Z,98564.62
2019-05-15T04:30:24.217Z,98566.91
2019-05-15T04:31:29.723Z,98559.39
2019-05-15T04:32:30.945Z,98561.94
2019-05-15T04:33:33.288Z,98558.09
2019-05-15T04:34:39.456Z,98558.42
2019-05-15T04:35:41.016Z,98558.57
2019-05-15T04:36:45.435Z,98555.19
2019-05-15T04:37:49.440Z,98551.05
2019-05-15T04:38:52.084Z,98549.11
2019-05-15T04:39:54.437Z,98552.94
2019-05-15T04:40:58.881Z,98547.41
2019-05-15T04:42:01.115Z,98549.42
2019-05-15T04:43:02.909Z,98549.09
2019-05-15T04:44:05.149Z,98559.60
2019-05-15T04:45:10.002Z,98561.27
2019-05-15T04:46:13.077Z,98552.30
2019-05-15T04:47:19.016Z,98554.64
2019-05-15T04:48:20.279Z,98560.27
2019-05-15T04:49:23.255Z,98554.55
2019-05-15T04:50:28.448Z,98556.17
2019-05-15T04:51:30.652Z,98557.18
2019-05-15T04:52:33.318Z,98554.86
2019-05-15T04:53:39.114Z,98558.45
2019-05-15T04:54:40.949Z,98556.27
2019-05-15T04:55:44.905Z,98544.38
2019-05-15T04:56:48.935Z,98548.69
2019-05-15T04:57:51.601Z,98549.31
2019-05-15T04:58:53.978Z,98545.98
2019-05-15T04:59:58.718Z,98545.86
2019-05-15T05:01:01.113Z,98546.52
2019-05-15T05:02:26.328Z,98540.09
2019-05-15T05:03:10.176Z,98542.06
2019-05-15T05:04:12.951Z,98537.97
2019-05-15T05:05:18.785Z,98535.47
2019-05-15T05:06:20.264Z,98537.37
2019-05-15T05:07:22.463Z,98540.77
2019-05-15T05:08:25.258Z,98534.56
2019-05-15T05:09:28.966Z,98532.45
2019-05-15T05:10:31.542Z,98541.20
2019-05-15T05:11:38.224Z,98539.87
2019-05-15T05:12:42.673Z,98532.05
2019-05-15T05:13:44.737Z,98539.63
2019-05-15T05:14:48.439Z,98539.38
2019-05-15T05:15:50.761Z,98542.38
2019-05-15T05:16:53.569Z,98541.41
2019-05-15T05:17:58.421Z,98540.12
2019-05-15T05:18:59.761Z,98533.33
2019-05-15T05:20:07.861Z,98529.73
2019-05-15T05:21:09.754Z,98525.89
2019-05-15T05:22:12.004Z,98529.02
2019-05-15T05:23:14.553Z,98533.12
2019-05-15T05:24:18.547Z,98526.69
2019-05-15T05:25:20.856Z,98533.57
2019-05-15T05:26:23.166Z,98530.11
2019-05-15T05:27:25.528Z,98529.03
2019-05-15T05:28:29.012Z,98531.81
2019-05-15T05:29:32.758Z,98527.86
2019-05-15T05:30:34.576Z,98523.97
2019-05-15T05:31:39.188Z,98531.00
2019-05-15T05:32:41.994Z,98529.71
2019-05-15T05:33:44.372Z,98529.50
2019-05-15T05:34:48.296Z,98523.37
2019-05-15T05:35:52.680Z,98522.02
2019-05-15T05:36:55.087Z,98523.22
2019-05-15T05:37:58.336Z,98524.02
2019-05-15T05:39:01.636Z,98524.03
2019-05-15T05:40:07.880Z,98523.72
2019-05-15T05:41:09.885Z,98523.70
2019-05-15T05:42:12.241Z,98528.19
2019-05-15T05:43:14.492Z,98519.72
2019-05-15T05:44:18.881Z,98530.56
2019-05-15T05:45:21.696Z,98535.03
2019-05-15T05:46:23.399Z,98527.23
2019-05-15T05:47:25.585Z,98521.26
2019-05-15T05:48:29.332Z,98525.48
2019-05-15T05:49:31.917Z,98525.95
2019-05-15T05:50:43.909Z,98525.85
2019-05-15T05:51:44.577Z,98523.33
2019-05-15T05:52:49.050Z,98523.72
2019-05-15T05:53:51.613Z,98528.98
2019-05-15T05:54:53.993Z,98527.63
2019-05-15T05:55:58.068Z,98532.09
2019-05-15T05:57:00.872Z,98535.59
2019-05-15T05:58:04.359Z,98531.98
2019-05-15T05:59:09.162Z,98533.95
2019-05-15T06:00:11.841Z,98536.99
2019-05-15T06:01:14.348Z,98533.47
2019-05-15T06:02:18.602Z,98530.83
2019-05-15T06:03:22.715Z,98535.22
2019-05-15T06:04:24.616Z,98528.26
2019-05-15T06:05:28.105Z,98523.95
2019-05-15T06:06:30.654Z,98525.66
2019-05-15T06:07:35.480Z,98521.00
2019-05-15T06:08:38.946Z,98522.37
2019-05-15T06:09:42.903Z,98521.02
2019-05-15T06:10:45.295Z,98523.03
2019-05-15T06:11:50.728Z,98520.05
2019-05-15T06:12:53.292Z,98515.25
2019-05-15T06:13:58.237Z,98519.80
2019-05-15T06:15:00.013Z,98514.42
2019-05-15T06:16:02.478Z,98517.06
2019-05-15T06:17:04.962Z,98515.41
2019-05-15T06:18:08.439Z,98513.09
2019-05-15T06:19:11.010Z,98515.73
2019-05-15T06:20:13.998Z,98516.28
2019-05-15T06:21:17.923Z,98507.33
2019-05-15T06:22:20.516Z,98511.58
2019-05-15T06:23:25.785Z,98513.92
2019-05-15T06:24:30.629Z,98517.59
2019-05-15T06:25:32.503Z,98513.36
2019-05-15T06:26:35.894Z,98510.33
2019-05-15T06:27:38.965Z,98515.11
2019-05-15T06:28:41.632Z,98521.78
2019-05-15T06:29:45.087Z,98524.70
2019-05-15T06:30:48.831Z,98516.90
2019-05-15T06:31:51.854Z,98516.21
2019-05-15T06:33:05.664Z,98516.03
2019-05-15T06:33:58.745Z,98518.80
2019-05-15T06:35:01.885Z,98516.47
2019-05-15T06:36:04.530Z,98515.75
2019-05-15T06:37:08.366Z,98515.13
2019-05-15T06:38:10.936Z,98515.64
2019-05-15T06:39:13.512Z,98514.79
2019-05-15T06:40:18.309Z,98521.26
2019-05-15T06:41:22.736Z,98525.67
2019-05-15T06:42:28.350Z,98523.33
2019-05-15T06:43:30.809Z,98521.94
2019-05-15T06:44:33.156Z,98520.59
2019-05-15T06:45:37.884Z,98519.88
2019-05-15T06:46:40.990Z,98512.23
2019-05-15T06:47:43.507Z,98516.34
2019-05-15T06:48:48.445Z,98509.53
2019-05-15T06:49:50.398Z,98511.62
2019-05-15T06:50:53.083Z,98511.77
2019-05-15T06:51:54.883Z,98516.22
2019-05-15T06:52:58.754Z,98514.58
2019-05-15T06:54:01.582Z,98519.57
2019-05-15T06:55:09.430Z,98514.20
2019-05-15T06:56:11.945Z,98510.02
2019-05-15T06:57:14.634Z,98508.35
2019-05-15T06:58:19.185Z,98508.80
2019-05-15T06:59:21.047Z,98506.43
2019-05-15T07:00:23.884Z,98507.36
2019-05-15T07:01:25.951Z,98505.10
2019-05-15T07:02:28.672Z,98511.27
2019-05-15T07:03:31.071Z,98509.94
2019-05-15T07:04:33.666Z,98510.62
2019-05-15T07:05:38.464Z,98510.94
2019-05-15T07:06:40.364Z,98511.88
2019-05-15T07:07:43.829Z,98510.59
2019-05-15T07:08:49.299Z,98511.95
2019-05-15T07:09:51.224Z,98515.86
2019-05-15T07:10:57.884Z,98517.30
2019-05-15T07:12:01.908Z,98514.30
2019-05-15T07:13:05.180Z,98509.01
2019-05-15T07:14:08.885Z,98511.27
2019-05-15T07:15:12.167Z,98515.10
2019-05-15T07:16:14.791Z,98518.28
2019-05-15T07:17:17.830Z,98511.52
2019-05-15T07:18:20.316Z,98513.17
2019-05-15T07:19:22.861Z,98510.75
2019-05-15T07:20:28.336Z,98506.66
2019-05-15T07:21:31.813Z,98512.16
2019-05-15T07:22:34.597Z,98509.64
2019-05-15T07:23:38.653Z,98510.68
2019-05-15T07:24:41.228Z,98508.00
2019-05-15T07:25:45.586Z,98509.58
2019-05-15T07:26:48.596Z,98511.55
2019-05-15T07:27:52.329Z,98505.72
2019-05-15T07:28:56.637Z,98508.45
2019-05-15T07:29:58.967Z,98508.98
2019-05-15T07:31:02.279Z,98505.77
2019-05-15T07:32:05.163Z,98503.52
2019-05-15T07:33:08.786Z,98509.77
2019-05-15T07:34:11.004Z,98506.81
2019-05-15T07:35:14.291Z,98505.77
2019-05-15T07:36:19.135Z,98506.09
2019-05-15T07:37:20.321Z,98501.64
2019-05-15T07:38:22.695Z,98504.85
2019-05-15T07:39:24.846Z,98509.73
2019-05-15T07:40:29.342Z,98514.23
2019-05-15T07:41:32.420Z,98502.47
2019-05-15T07:42:38.706Z,98505.34
2019-05-15T07:43:40.775Z,98510.61
2019-05-15T07:44:43.161Z,98500.42
2019-05-15T07:45:52.389Z,98496.79
2019-05-15T07:46:49.383Z,98503.09
2019-05-15T07:47:52.078Z,98500.34
2019-05-15T07:48:54.365Z,98506.81
2019-05-15T07:49:58.901Z,98511.15
2019-05-15T07:51:01.411Z,98509.59
2019-05-15T07:52:04.885Z,98507.70
2019-05-15T07:53:09.482Z,98506.95
2019-05-15T07:54:11.667Z,98505.05
2019-05-15T07:55:13.870Z,98512.88
2019-05-15T07:56:18.170Z,98507.56
2019-05-15T07:57:22.520Z,98510.22
2019-05-15T07:58:24.791Z,98506.00
2019-05-15T07:59:27.978Z,98509.72
2019-05-15T08:00:30.584Z,98511.55
2019-05-15T08:01:32.933Z,98510.48
2019-05-15T08:02:35.121Z,98502.39
2019-05-15T08:03:47.178Z,98509.27
2019-05-15T08:04:42.178Z,98511.52
2019-05-15T08:05:57.972Z,98507.16
2019-05-15T08:06:50.842Z,98507.80
2019-05-15T08:07:53.318Z,98501.50
2019-05-15T08:08:56.007Z,98508.87
2019-05-15T08:09:59.167Z,98506.81
2019-05-15T08:11:16.147Z,98501.93
2019-05-15T08:12:08.355Z,98499.99
2019-05-15T08:13:10.555Z,98507.59
2019-05-15T08:14:15.487Z,98502.71
2019-05-15T08:15:19.385Z,98505.14
2019-05-15T08:16:22.534Z,98499.70
2019-05-15T08:17:25.180Z,98507.02
2019-05-15T08:18:28.565Z,98506.52
2019-05-15T08:19:32.742Z,98500.22
2019-05-15T08:20:35.105Z,98503.84
2019-05-15T08:21:38.526Z,98500.31
2019-05-15T08:22:41.395Z,98500.16
2019-05-15T08:23:44.308Z,98504.33
2019-05-15T08:24:48.450Z,98501.00
2019-05-15T08:25:51.660Z,98501.03
2019-05-15T08:26:54.070Z,98505.51
2019-05-15T08:27:58.839Z,98500.83
2019-05-15T08:29:01.525Z,98499.34
2019-05-15T08:30:08.773Z,98501.86
2019-05-15T08:31:10.631Z,98502.22
2019-05-15T08:32:13.464Z,98508.20
2019-05-15T08:33:17.784Z,98505.17
2019-05-15T08:34:20.348Z,98503.67
2019-05-15T08:35:22.932Z,98499.36
2019-05-15T08:36:27.698Z,98506.82
2019-05-15T08:37:30.716Z,98496.75
2019-05-15T08:38:33.327Z,98498.10
2019-05-15T08:39:38.019Z,98498.59
2019-05-15T08:40:41.177Z,98500.76
2019-05-15T08:41:44.205Z,98495.53
2019-05-15T08:42:56.802Z,98496.38
2019-05-15T08:43:51.851Z,98499.30
2019-05-15T08:44:54.127Z,98494.47
2019-05-15T08:45:58.632Z,98493.31
2019-05-15T08:47:01.389Z,98502.49
2019-05-15T08:48:04.008Z,98500.53
2019-05-15T08:49:05.933Z,98498.38
2019-05-15T08:50:09.529Z,98496.92
2019-05-15T08:51:13.055Z,98498.48
2019-05-15T08:52:15.894Z,98498.72
2019-05-15T08:53:19.568Z,98495.45
2019-05-15T08:54:22.784Z,98499.64
2019-05-15T08:55:28.047Z,98495.42
2019-05-15T08:56:30.264Z,98501.17
2019-05-15T08:57:33.071Z,98499.16
2019-05-15T08:58:38.171Z,98497.97
2019-05-15T08:59:40.723Z,98495.42
2019-05-15T09:00:44.177Z,98495.48
2019-05-15T09:01:48.791Z,98493.09
2019-05-15T09:02:50.958Z,98493.78
2019-05-15T09:03:53.649Z,98492.50
2019-05-15T09:04:58.076Z,98494.39
2019-05-15T09:06:01.886Z,98498.03
2019-05-15T09:07:03.952Z,98499.30
2019-05-15T09:08:09.315Z,98492.97
2019-05-15T09:09:12.577Z,98488.90
2019-05-15T09:10:18.410Z,98490.28
2019-05-15T09:11:20.876Z,98489.53
2019-05-15T09:12:23.260Z,98489.85
2019-05-15T09:13:26.106Z,98487.83
2019-05-15T09:14:29.311Z,98493.41
2019-05-15T09:15:33.269Z,98487.07
2019-05-15T09:16:38.535Z,98498.55
2019-05-15T09:17:40.832Z,98494.27
2019-05-15T09:18:43.157Z,98488.81
2019-05-15T09:19:45.549Z,98487.02
2019-05-15T09:20:49.133Z,98492.72
2019-05-15T09:21:51.997Z,98489.84
2019-05-15T09:22:54.642Z,98485.66
2019-05-15T09:23:58.887Z,98486.30
2019-05-15T09:25:01.952Z,98486.17
2019-05-15T09:26:05.200Z,98483.17
2019-05-15T09:27:09.856Z,98481.23
2019-05-15T09:28:12.317Z,98478.89
2019-05-15T09:29:14.799Z,98483.42
2019-05-15T09:30:18.231Z,98475.05
2019-05-15T09:31:21.347Z,98482.75
2019-05-15T09:32:23.983Z,98475.97
2019-05-15T09:33:28.572Z,98479.58
2019-05-15T09:34:46.723Z,98474.92
2019-05-15T09:35:35.267Z,98469.42
2019-05-15T09:36:40.275Z,98472.08
2019-05-15T09:37:42.689Z,98465.37
2019-05-15T09:38:45.125Z,98469.49
2019-05-15T09:39:48.975Z,98471.97
2019-05-15T09:40:52.119Z,98463.13
2019-05-15T09:41:54.675Z,98466.70
2019-05-15T09:42:58.215Z,98465.95
2019-05-15T09:44:01.388Z,98461.58
2019-05-15T09:45:08.919Z,98457.59
2019-05-15T09:46:11.061Z,98466.66
2019-05-15T09:47:13.831Z,98468.41
2019-05-15T09:48:19.244Z,98460.75
2019-05-15T09:49:22.573Z,98462.04
2019-05-15T09:50:25.497Z,98457.07
2019-05-15T09:51:29.042Z,98459.86
2019-05-15T09:52:33.124Z,98461.34
2019-05-15T09:53:35.875Z,98456.75
2019-05-15T09:54:38.847Z,98455.28
2019-05-15T09:55:41.678Z,98461.06
2019-05-15T09:56:44.993Z,98459.70
2019-05-15T09:57:49.053Z,98455.00
2019-05-15T09:58:51.856Z,98449.22
2019-05-15T09:59:54.458Z,98456.92
2019-05-15T10:00:57.011Z,98453.84
2019-05-15T10:01:59.430Z,98454.58
2019-05-15T10:03:04.206Z,98451.92
2019-05-15T10:04:08.323Z,98452.97
2019-05-15T10:05:11.788Z,98452.38
2019-05-15T10:06:14.364Z,98452.24
2019-05-15T10:07:19.121Z,98448.67
2019-05-15T10:08:21.726Z,98454.52
2019-05-15T10:09:24.504Z,98454.37
2019-05-15T10:10:28.431Z,98446.95
2019-05-15T10:11:31.636Z,98452.58
2019-05-15T10:12:35.077Z,98449.61
2019-05-15T10:13:39.658Z,98454.37
2019-05-15T10:14:42.417Z,98452.73
2019-05-15T10:15:48.334Z,98457.66
2019-05-15T10:16:49.851Z,98456.19
2019-05-15T10:17:52.398Z,98458.58
2019-05-15T10:18:54.142Z,98455.56
2019-05-15T10:19:59.064Z,98459.91
2019-05-15T10:21:02.290Z,98453.53
2019-05-15T10:22:04.541Z,98456.92
2019-05-15T10:23:08.766Z,98449.37
2019-05-15T10:24:12.479Z,98451.12
2019-05-15T10:25:18.810Z,98450.23
2019-05-15T10:26:22.640Z,98442.68
2019-05-15T10:27:25.541Z,98446.92
2019-05-15T10:28:29.375Z,98445.84
2019-05-15T10:29:32.291Z,98446.61
2019-05-15T10:30:35.731Z,98448.59
2019-05-15T10:31:38.902Z,98443.53
2019-05-15T10:32:43.538Z,98434.25
2019-05-15T10:33:49.208Z,98440.44
2019-05-15T10:34:51.503Z,98436.98
2019-05-15T10:35:55.104Z,98438.69
2019-05-15T10:36:59.014Z,98438.34
2019-05-15T10:38:03.610Z,98441.06
2019-05-15T10:39:08.480Z,98437.40
2019-05-15T10:40:10.960Z,98436.30
2019-05-15T10:41:15.144Z,98435.83
2019-05-15T10:42:19.318Z,98432.24
2019-05-15T10:43:21.337Z,98437.11
2019-05-15T10:44:23.768Z,98432.05
2019-05-15T10:45:29.353Z,98438.69
2019-05-15T10:46:31.654Z,98431.80
2019-05-15T10:47:33.854Z,98430.37
2019-05-15T10:48:38.383Z,98423.73
2019-05-15T10:49:40.033Z,98430.75
2019-05-15T10:50:42.723Z,98426.90
2019-05-15T10:51:44.746Z,98427.11
2019-05-15T10:52:48.963Z,98434.36
2019-05-15T10:53:54.345Z,98425.98
2019-05-15T10:54:58.166Z,98424.69
2019-05-15T10:56:03.049Z,98428.17
2019-05-15T10:57:08.549Z,98424.58
2019-05-15T10:58:16.569Z,98426.05
2019-05-15T10:59:14.308Z,98421.98
2019-05-15T11:00:19.488Z,98424.96
2019-05-15T11:01:21.366Z,98425.14
2019-05-15T11:02:24.307Z,98425.66
2019-05-15T11:03:26.677Z,98423.38
2019-05-15T11:04:29.061Z,98428.48
2019-05-15T11:05:44.619Z,98429.38
2019-05-15T11:06:38.507Z,98425.84
2019-05-15T11:07:41.506Z,98426.81
2019-05-15T11:08:43.770Z,98419.90
2019-05-15T11:09:48.738Z,98426.38
2019-05-15T11:10:50.294Z,98430.75
2019-05-15T11:11:52.624Z,98426.19
2019-05-15T11:12:55.145Z,98423.35
2019-05-15T11:14:00.248Z,98426.28
2019-05-15T11:15:11.058Z,98426.82
2019-05-15T11:16:11.684Z,98423.01
2019-05-15T11:17:14.214Z,98425.34
2019-05-15T11:18:16.413Z,98428.01
2019-05-15T11:19:18.809Z,98423.93
2019-05-15T11:20:23.069Z,98420.91
2019-05-15T11:21:27.262Z,98424.36
2019-05-15T11:22:30.172Z,98426.67
2019-05-15T11:23:32.575Z,98423.09
2019-05-15T11:24:38.353Z,98421.45
2019-05-15T11:25:39.391Z,98426.62
2019-05-15T11:26:41.743Z,98423.66
2019-05-15T11:27:44.529Z,98427.07
2019-05-15T11:28:49.733Z,98424.81
2019-05-15T11:29:52.246Z,98420.02
2019-05-15T11:30:54.594Z,98420.42
2019-05-15T11:31:58.060Z,98418.52
2019-05-15T11:33:02.507Z,98420.88
2019-05-15T11:34:05.134Z,98422.42
2019-05-15T11:35:11.711Z,98421.98
2019-05-15T11:36:14.065Z,98420.83
2019-05-15T11:37:18.760Z,98420.11
2019-05-15T11:38:21.133Z,98418.20
2019-05-15T11:39:24.240Z,98421.52
2019-05-15T11:40:28.412Z,98424.83
2019-05-15T11:41:30.886Z,98421.28
2019-05-15T11:42:32.766Z,98421.67
2019-05-15T11:43:38.274Z,98415.88
2019-05-15T11:44:42.043Z,98427.95
2019-05-15T11:45:44.786Z,98416.09
2019-05-15T11:46:50.488Z,98425.66
2019-05-15T11:47:54.240Z,98423.52
2019-05-15T11:48:58.731Z,98419.95
2019-05-15T11:50:03.755Z,98415.09
2019-05-15T11:51:09.488Z,98414.11
2019-05-15T11:52:11.444Z,98414.52
2019-05-15T11:53:14.205Z,98412.25
2019-05-15T11:54:19.155Z,98415.85
2019-05-15T11:55:20.467Z,98408.05
2019-05-15T11:56:23.780Z,98416.13
2019-05-15T11:57:39.134Z,98408.02
2019-05-15T11:58:31.850Z,98410.39
2019-05-15T11:59:43.671Z,98417.75
2019-05-15T12:00:39.904Z,98408.11
2019-05-15T12:01:42.327Z,98406.83
2019-05-15T12:02:46.767Z,98414.63
2019-05-15T12:03:48.866Z,98410.84
2019-05-15T12:04:52.061Z,98414.67
2019-05-15T12:05:54.921Z,98417.63
2019-05-15T12:06:59.726Z,98412.58
2019-05-15T12:08:02.265Z,98421.02
2019-05-15T12:09:08.928Z,98411.44
2019-05-15T12:10:11.142Z,98415.12
2019-05-15T12:11:28.759Z,98412.59
2019-05-15T12:12:19.304Z,98412.24
2019-05-15T12:13:23.758Z,98409.58
2019-05-15T12:14:29.453Z,98413.92
2019-05-15T12:15:32.734Z,98417.77
2019-05-15T12:16:36.283Z,98410.21
2019-05-15T12:17:39.328Z,98415.01
2019-05-15T12:18:41.792Z,98417.28
2019-05-15T12:19:54.904Z,98413.51
2019-05-15T12:20:49.433Z,98413.27
2019-05-15T12:21:55.450Z,98405.78
2019-05-15T12:22:59.439Z,98406.23